Time;durP1;ratioP1;P1;durP2;ratioP2;P2;SDS_P1;SDS_P2;PMS_P1;PMS_P2;Temp;Humidity;BMP_temperature;BMP_pressure;BME280_temperature;BME280_humidity;BME280_pressure;Samples;Min_cycle;Max_cycle;Signal;HPM_P1;HPM_P2
2023/08/21 00:00:33;;;;;;;5.80;5.05;;;25.80;99.90;;;;;;5074502;28;20228;-61
2023/08/21 00:03:00;;;;;;;7.55;5.07;;;25.70;99.90;;;;;;5074846;28;20232;-62
2023/08/21 00:05:27;;;;;;;8.55;4.88;;;25.70;99.90;;;;;;5074101;28;20224;-61
2023/08/21 00:07:53;;;;;;;7.95;4.88;;;25.70;99.90;;;;;;5074051;28;20205;-61
2023/08/21 00:10:20;;;;;;;7.35;5.30;;;25.60;99.90;;;;;;5074306;28;20200;-62
2023/08/21 00:12:47;;;;;;;5.75;5.15;;;25.60;99.90;;;;;;5074277;28;20232;-61
2023/08/21 00:15:15;;;;;;;7.18;5.40;;;25.60;99.90;;;;;;5074093;28;20229;-60
2023/08/21 00:17:41;;;;;;;7.47;4.80;;;25.60;99.90;;;;;;5073875;28;20236;-61
2023/08/21 00:20:09;;;;;;;8.60;4.95;;;25.60;99.90;;;;;;5074613;28;20225;-62
2023/08/21 00:22:36;;;;;;;5.55;4.72;;;25.60;99.90;;;;;;5073754;28;20228;-61
2023/08/21 00:25:03;;;;;;;7.50;4.90;;;25.60;99.90;;;;;;5073884;28;20773;-61
2023/08/21 00:27:30;;;;;;;6.72;5.07;;;25.60;99.90;;;;;;5073533;28;20303;-62
2023/08/21 00:29:56;;;;;;;10.40;5.70;;;25.70;99.90;;;;;;5073966;28;20205;-61
2023/08/21 00:32:24;;;;;;;8.60;5.40;;;25.70;99.90;;;;;;5074010;28;20318;-62
2023/08/21 00:34:51;;;;;;;6.00;4.75;;;25.70;99.90;;;;;;5073923;28;20224;-62
2023/08/21 00:37:19;;;;;;;5.75;5.25;;;25.70;99.90;;;;;;5073810;28;20205;-61
2023/08/21 00:39:46;;;;;;;5.55;5.05;;;25.80;99.90;;;;;;5073464;28;20281;-62
2023/08/21 00:42:13;;;;;;;5.50;4.95;;;25.80;99.90;;;;;;5073680;28;20209;-61
2023/08/21 00:44:39;;;;;;;8.20;5.63;;;25.80;99.90;;;;;;5073406;28;20236;-61
2023/08/21 00:47:06;;;;;;;5.72;5.13;;;25.80;99.90;;;;;;5073069;28;20215;-61
2023/08/21 00:49:35;;;;;;;7.78;4.93;;;25.70;99.90;;;;;;5073362;28;20201;-61
2023/08/21 00:52:02;;;;;;;5.63;5.10;;;25.60;99.90;;;;;;5073153;28;20207;-61
2023/08/21 00:54:29;;;;;;;7.93;5.65;;;25.60;99.90;;;;;;5073148;28;20221;-60
2023/08/21 00:56:56;;;;;;;6.68;5.68;;;25.50;99.90;;;;;;5072929;28;20204;-61
2023/08/21 00:59:23;;;;;;;6.50;5.35;;;25.40;99.90;;;;;;5073299;28;20224;-61
2023/08/21 01:01:50;;;;;;;9.32;5.88;;;25.40;99.90;;;;;;5073117;28;20205;-61
2023/08/21 01:04:17;;;;;;;10.07;5.40;;;25.40;99.90;;;;;;5072953;28;20224;-61
2023/08/21 01:06:45;;;;;;;7.72;4.88;;;25.30;99.90;;;;;;5072960;28;20216;-62
2023/08/21 01:09:18;;;;;;;5.53;5.00;;;25.20;99.90;;;;;;5073226;28;20197;-62
2023/08/21 01:11:52;;;;;;;6.53;5.57;;;25.20;99.90;;;;;;5073495;28;20224;-61
2023/08/21 01:14:26;;;;;;;9.27;5.40;;;25.10;99.90;;;;;;5073662;28;20229;-62
2023/08/21 01:16:59;;;;;;;6.57;5.60;;;25.00;99.90;;;;;;5073077;28;20211;-61
2023/08/21 01:19:32;;;;;;;8.18;5.00;;;25.00;99.90;;;;;;5073651;28;20235;-61
2023/08/21 01:22:01;;;;;;;9.02;5.60;;;24.80;99.90;;;;;;5073917;28;20228;-61
2023/08/21 01:24:29;;;;;;;6.57;5.30;;;24.80;99.90;;;;;;5073346;28;20228;-61
2023/08/21 01:26:56;;;;;;;6.40;5.60;;;24.70;99.90;;;;;;5072340;28;20262;-64
2023/08/21 01:29:23;;;;;;;8.15;5.50;;;24.70;99.90;;;;;;5072453;28;20197;-61
2023/08/21 01:31:57;;;;;;;11.18;5.80;;;24.60;99.90;;;;;;5072477;28;20216;-60
2023/08/21 01:34:24;;;;;;;6.65;5.45;;;24.50;99.90;;;;;;5072230;28;20573;-60
2023/08/21 01:36:53;;;;;;;5.85;5.20;;;24.50;99.90;;;;;;5072261;28;20215;-61
2023/08/21 01:39:20;;;;;;;6.22;5.20;;;24.50;99.90;;;;;;5071724;28;20251;-60
2023/08/21 01:41:48;;;;;;;10.20;5.10;;;24.40;99.90;;;;;;5072011;28;20201;-61
2023/08/21 01:44:14;;;;;;;8.70;5.25;;;24.30;99.90;;;;;;5084804;22;20241;-63
2023/08/21 01:46:41;;;;;;;7.80;5.05;;;24.20;99.90;;;;;;5043282;28;20202;-64
2023/08/21 01:49:08;;;;;;;7.82;5.43;;;24.20;99.90;;;;;;5051605;28;20668;-63
2023/08/21 01:51:35;;;;;;;6.97;5.13;;;24.20;99.90;;;;;;5051437;28;20213;-63
2023/08/21 01:54:01;;;;;;;7.55;5.43;;;24.20;99.90;;;;;;5051518;28;20748;-63
2023/08/21 01:56:28;;;;;;;8.43;5.60;;;24.20;99.90;;;;;;5051287;28;20216;-63
2023/08/21 01:58:56;;;;;;;8.00;5.38;;;24.10;99.90;;;;;;5051684;28;20214;-64
2023/08/21 02:01:23;;;;;;;6.07;5.47;;;24.10;99.90;;;;;;5051442;28;20382;-64
2023/08/21 02:03:49;;;;;;;6.43;5.60;;;24.10;99.90;;;;;;5051415;28;20300;-63
2023/08/21 02:06:16;;;;;;;7.95;5.78;;;24.10;99.90;;;;;;5051675;28;20201;-64
2023/08/21 02:08:43;;;;;;;9.88;5.28;;;24.10;99.90;;;;;;5052073;28;20285;-64
2023/08/21 02:11:09;;;;;;;7.97;5.57;;;24.00;99.90;;;;;;5051979;28;20201;-64
2023/08/21 02:13:36;;;;;;;9.93;6.25;;;23.90;99.90;;;;;;5051555;28;20205;-65
2023/08/21 02:16:04;;;;;;;6.32;5.47;;;23.80;99.90;;;;;;5051310;28;20209;-65
2023/08/21 02:18:31;;;;;;;8.23;5.60;;;23.80;99.90;;;;;;5051363;28;20212;-64
2023/08/21 02:20:58;;;;;;;6.18;5.50;;;23.70;99.90;;;;;;5051439;28;20233;-64
2023/08/21 02:23:25;;;;;;;8.35;5.60;;;23.70;99.90;;;;;;5051208;28;20205;-65
2023/08/21 02:25:52;;;;;;;9.95;5.68;;;23.70;99.90;;;;;;5051127;28;20213;-64
2023/08/21 02:28:18;;;;;;;6.93;5.32;;;23.70;99.90;;;;;;5051396;28;20209;-64
2023/08/21 02:30:46;;;;;;;8.02;6.22;;;23.60;99.90;;;;;;5051552;28;20202;-64
2023/08/21 02:33:14;;;;;;;6.15;5.40;;;23.60;99.90;;;;;;5051290;28;20494;-64
2023/08/21 02:35:41;;;;;;;5.85;5.20;;;23.50;99.90;;;;;;5050828;28;20221;-64
2023/08/21 02:38:07;;;;;;;7.60;5.97;;;23.50;99.90;;;;;;5050644;28;20206;-64
2023/08/21 02:40:34;;;;;;;9.77;5.28;;;23.50;99.90;;;;;;5050740;28;20232;-64
2023/08/21 02:43:01;;;;;;;10.52;5.75;;;23.50;99.90;;;;;;5051028;28;20562;-64
2023/08/21 02:45:27;;;;;;;8.07;5.80;;;23.50;99.90;;;;;;5050547;28;20659;-64
2023/08/21 02:47:54;;;;;;;7.85;5.88;;;23.50;99.90;;;;;;5050438;28;20202;-64
2023/08/21 02:50:22;;;;;;;7.93;5.70;;;23.50;99.90;;;;;;5050874;28;20201;-64
2023/08/21 02:52:49;;;;;;;6.55;5.60;;;23.40;99.90;;;;;;5054319;28;20669;-64
2023/08/21 02:55:16;;;;;;;10.70;5.53;;;23.40;99.90;;;;;;5054882;28;20233;-64
2023/08/21 02:57:42;;;;;;;7.72;5.72;;;23.40;99.90;;;;;;5054763;28;20206;-64
2023/08/21 03:00:11;;;;;;;8.55;6.07;;;23.40;99.90;;;;;;5054834;28;20295;-64
2023/08/21 03:02:38;;;;;;;9.20;5.85;;;23.40;99.90;;;;;;5054864;28;20209;-63
2023/08/21 03:05:06;;;;;;;8.80;6.18;;;23.40;99.90;;;;;;5054560;28;20228;-64
2023/08/21 03:07:35;;;;;;;6.38;5.60;;;23.40;99.90;;;;;;5054998;28;20288;-64
2023/08/21 03:10:02;;;;;;;7.75;5.80;;;23.40;99.90;;;;;;5054900;28;20202;-64
2023/08/21 03:12:29;;;;;;;7.05;5.63;;;23.40;99.90;;;;;;5055036;28;20218;-64
2023/08/21 03:14:56;;;;;;;8.23;5.25;;;23.30;99.90;;;;;;5054604;28;20316;-64
2023/08/21 03:17:23;;;;;;;7.38;6.32;;;23.40;99.90;;;;;;5054284;28;20581;-64
2023/08/21 03:19:49;;;;;;;9.18;5.88;;;23.30;99.90;;;;;;5054027;28;20240;-63
2023/08/21 03:22:16;;;;;;;8.10;5.95;;;23.30;99.90;;;;;;5054405;28;20209;-63
2023/08/21 03:24:44;;;;;;;6.45;5.18;;;23.30;99.90;;;;;;5054077;28;20599;-63
2023/08/21 03:27:11;;;;;;;9.05;5.90;;;23.30;99.90;;;;;;5054177;28;20679;-63
2023/08/21 03:29:37;;;;;;;11.18;5.97;;;23.30;99.90;;;;;;5054128;28;20213;-63
2023/08/21 03:32:04;;;;;;;7.18;5.88;;;23.30;99.90;;;;;;5054227;28;20673;-64
2023/08/21 03:34:31;;;;;;;6.82;6.10;;;23.30;99.90;;;;;;5054009;28;20226;-64
2023/08/21 03:36:58;;;;;;;6.68;5.97;;;23.20;99.90;;;;;;5053855;28;20209;-64
2023/08/21 03:39:25;;;;;;;10.80;5.88;;;23.20;99.90;;;;;;5054308;28;20210;-64
2023/08/21 03:41:53;;;;;;;6.57;5.97;;;23.20;99.90;;;;;;5054028;28;20685;-64
2023/08/21 03:44:19;;;;;;;7.95;5.75;;;23.20;99.90;;;;;;5054116;28;20367;-64
2023/08/21 03:46:46;;;;;;;7.30;5.97;;;23.20;99.90;;;;;;5053607;28;20205;-64
2023/08/21 03:49:13;;;;;;;10.07;5.97;;;23.10;99.90;;;;;;5054063;28;20206;-64
2023/08/21 03:51:39;;;;;;;8.27;6.20;;;23.20;99.90;;;;;;5054106;28;20715;-63
2023/08/21 03:54:06;;;;;;;7.55;6.63;;;23.10;99.90;;;;;;5054021;28;20248;-64
2023/08/21 03:56:33;;;;;;;8.27;6.38;;;23.10;99.90;;;;;;5053837;28;20212;-65
2023/08/21 03:59:01;;;;;;;10.43;6.15;;;23.00;99.90;;;;;;5053885;28;20580;-65
2023/08/21 04:01:27;;;;;;;7.65;5.97;;;23.00;99.90;;;;;;5053803;28;20222;-65
2023/08/21 04:03:54;;;;;;;8.07;6.63;;;23.00;99.90;;;;;;5053427;28;20221;-64
2023/08/21 04:06:21;;;;;;;8.32;6.45;;;22.90;99.90;;;;;;5053656;28;20216;-64
2023/08/21 04:08:48;;;;;;;9.75;6.68;;;22.90;99.90;;;;;;5053734;28;20714;-64
2023/08/21 04:11:16;;;;;;;9.05;6.35;;;22.90;99.90;;;;;;5053489;28;20701;-64
2023/08/21 04:13:43;;;;;;;8.60;7.00;;;22.80;99.90;;;;;;5053631;28;20304;-64
2023/08/21 04:16:12;;;;;;;9.48;6.97;;;22.80;99.90;;;;;;5053236;28;20202;-64
2023/08/21 04:18:39;;;;;;;7.90;6.32;;;22.80;99.90;;;;;;5053853;28;20598;-64
2023/08/21 04:21:06;;;;;;;7.78;6.60;;;22.80;99.90;;;;;;5053060;28;20221;-64
2023/08/21 04:23:32;;;;;;;7.20;6.50;;;22.70;99.90;;;;;;5053373;28;20213;-64
2023/08/21 04:26:02;;;;;;;7.65;6.53;;;22.70;99.90;;;;;;5053055;28;20205;-65
2023/08/21 04:28:28;;;;;;;7.20;6.50;;;22.70;99.90;;;;;;5053540;28;20709;-64
2023/08/21 04:30:57;;;;;;;8.05;6.43;;;22.70;99.90;;;;;;5053434;28;20255;-65
2023/08/21 04:33:25;;;;;;;7.10;6.22;;;22.70;99.90;;;;;;5052961;28;20419;-64
2023/08/21 04:35:52;;;;;;;8.90;6.55;;;22.80;99.90;;;;;;5052679;28;20205;-64
2023/08/21 04:38:19;;;;;;;8.15;6.57;;;22.80;99.90;;;;;;5052533;28;20240;-64
2023/08/21 04:40:46;;;;;;;6.85;6.13;;;22.90;99.90;;;;;;5052542;28;20677;-64
2023/08/21 04:43:12;;;;;;;8.73;6.60;;;22.90;99.90;;;;;;5052710;28;20343;-64
2023/08/21 04:45:39;;;;;;;9.40;6.43;;;22.90;99.90;;;;;;5052530;28;20256;-65
2023/08/21 04:48:06;;;;;;;9.57;6.57;;;23.00;99.90;;;;;;5052574;28;20601;-65
2023/08/21 04:50:34;;;;;;;8.77;7.07;;;23.00;99.90;;;;;;5052671;28;20209;-66
2023/08/21 04:53:01;;;;;;;8.70;6.32;;;23.10;99.90;;;;;;5052824;28;20209;-65
2023/08/21 04:55:28;;;;;;;6.78;6.07;;;23.10;99.90;;;;;;5053072;28;20267;-66
2023/08/21 04:57:55;;;;;;;9.63;6.20;;;23.20;99.90;;;;;;5052591;28;20214;-65
2023/08/21 05:00:21;;;;;;;10.50;7.95;;;23.30;99.90;;;;;;5052400;28;20236;-66
2023/08/21 05:02:48;;;;;;;14.63;13.13;;;23.40;99.90;;;;;;5052393;28;20637;-67
2023/08/21 05:05:15;;;;;;;11.77;10.43;;;23.50;99.90;;;;;;5052385;28;20468;-66
2023/08/21 05:07:43;;;;;;;12.85;8.35;;;23.50;99.90;;;;;;5051651;28;20212;-67
2023/08/21 05:10:10;;;;;;;9.02;7.80;;;23.50;99.90;;;;;;5051957;28;20206;-66
2023/08/21 05:12:37;;;;;;;9.52;7.20;;;23.60;99.90;;;;;;5052009;28;20707;-66
2023/08/21 05:15:05;;;;;;;9.60;7.40;;;23.60;99.90;;;;;;5051869;28;20229;-65
2023/08/21 05:17:31;;;;;;;10.40;7.82;;;23.70;99.90;;;;;;5051660;28;20201;-64
2023/08/21 05:19:58;;;;;;;8.15;6.50;;;23.70;99.90;;;;;;5051675;28;20563;-65
2023/08/21 05:22:25;;;;;;;10.07;6.53;;;23.70;99.90;;;;;;5051831;28;20597;-65
2023/08/21 05:24:53;;;;;;;8.95;6.75;;;23.70;99.90;;;;;;5051593;28;20309;-66
2023/08/21 05:27:19;;;;;;;8.25;6.05;;;23.70;99.90;;;;;;5051942;28;20268;-65
2023/08/21 05:29:46;;;;;;;7.80;6.10;;;23.70;99.90;;;;;;5051667;28;20660;-65
2023/08/21 05:32:13;;;;;;;9.90;6.60;;;23.80;99.90;;;;;;5051579;28;20212;-65
2023/08/21 05:34:40;;;;;;;8.90;6.82;;;23.80;99.90;;;;;;5051472;28;20233;-65
2023/08/21 05:37:06;;;;;;;8.93;6.85;;;23.90;99.90;;;;;;5051134;28;20217;-66
2023/08/21 05:39:33;;;;;;;11.40;7.32;;;24.00;99.90;;;;;;5051586;28;20232;-67
2023/08/21 05:42:01;;;;;;;7.93;6.22;;;24.10;99.90;;;;;;5051822;28;20257;-65
2023/08/21 05:44:28;;;;;;;7.70;6.90;;;24.40;99.90;;;;;;5051345;28;20256;-65
2023/08/21 05:46:55;;;;;;;8.85;5.90;;;25.00;99.90;;;;;;5051101;28;20676;-66
2023/08/21 05:49:22;;;;;;;8.57;5.82;;;26.00;99.90;;;;;;5051232;28;20259;-66
2023/08/21 05:51:48;;;;;;;6.93;5.30;;;27.40;99.90;;;;;;5051274;28;20201;-66
2023/08/21 05:54:15;;;;;;;10.52;6.00;;;28.50;99.90;;;;;;5051337;28;20603;-66
2023/08/21 05:56:42;;;;;;;7.50;5.43;;;29.60;99.90;;;;;;5050958;28;20212;-66
2023/08/21 05:59:12;;;;;;;7.13;5.70;;;30.60;99.90;;;;;;5051141;28;20685;-65
2023/08/21 06:01:39;;;;;;;7.90;5.20;;;31.60;99.90;;;;;;5051254;28;20319;-66
2023/08/21 06:04:06;;;;;;;9.43;5.00;;;32.60;99.90;;;;;;5050961;28;20229;-66
2023/08/21 06:06:32;;;;;;;7.15;5.03;;;33.50;99.90;;;;;;5050744;28;20206;-66
2023/08/21 06:08:59;;;;;;;14.13;5.82;;;34.20;99.90;;;;;;5051281;28;20206;-66
2023/08/21 06:11:26;;;;;;;9.75;5.95;;;34.40;99.90;;;;;;5051110;28;20201;-66
2023/08/21 06:13:52;;;;;;;11.75;5.95;;;34.20;99.90;;;;;;5050823;28;20732;-66
2023/08/21 06:16:20;;;;;;;7.28;5.78;;;34.40;99.90;;;;;;5050590;28;20688;-66
2023/08/21 06:18:47;;;;;;;7.35;5.47;;;34.70;99.90;;;;;;5051049;28;20232;-65
2023/08/21 06:21:14;;;;;;;9.27;5.75;;;35.00;99.90;;;;;;5050881;28;20221;-66
2023/08/21 06:23:40;;;;;;;7.72;5.22;;;35.50;99.90;;;;;;5051159;28;20209;-66
2023/08/21 06:26:07;;;;;;;8.55;5.35;;;36.10;99.90;;;;;;5050127;28;20232;-65
2023/08/21 06:28:34;;;;;;;9.43;5.63;;;36.30;99.90;;;;;;5051137;28;20208;-65
2023/08/21 06:31:03;;;;;;;11.23;5.65;;;36.70;99.90;;;;;;5050949;28;20206;-66
2023/08/21 06:33:31;;;;;;;10.43;6.30;;;36.90;99.90;;;;;;5050737;28;20304;-65
2023/08/21 06:35:58;;;;;;;8.35;6.07;;;37.00;99.90;;;;;;5050992;28;20216;-66
2023/08/21 06:38:25;;;;;;;6.00;5.40;;;37.00;99.90;;;;;;5051122;28;20216;-64
2023/08/21 06:40:51;;;;;;;11.57;5.53;;;37.20;99.90;;;;;;5050827;28;20247;-64
2023/08/21 06:43:18;;;;;;;8.02;5.63;;;37.70;99.90;;;;;;5050763;28;20205;-65
2023/08/21 06:45:45;;;;;;;12.32;5.40;;;38.60;99.70;;;;;;5050049;28;20233;-65
2023/08/21 06:48:11;;;;;;;9.32;4.65;;;39.10;97.60;;;;;;5050411;28;20245;-65
2023/08/21 06:50:39;;;;;;;9.23;6.13;;;39.60;96.40;;;;;;5050816;28;20227;-65
2023/08/21 06:53:06;;;;;;;10.10;5.72;;;39.80;94.90;;;;;;5050574;28;20205;-66
2023/08/21 06:55:33;;;;;;;8.02;5.57;;;39.90;94.10;;;;;;5050723;28;20228;-65
2023/08/21 06:58:00;;;;;;;6.50;5.10;;;39.70;93.40;;;;;;5050509;28;20208;-65
2023/08/21 07:00:26;;;;;;;9.40;5.18;;;39.60;93.70;;;;;;5050672;28;20204;-65
2023/08/21 07:02:53;;;;;;;9.38;5.70;;;40.20;92.50;;;;;;5050481;28;20727;-66
2023/08/21 07:05:20;;;;;;;7.93;5.68;;;40.80;91.10;;;;;;5050644;28;20232;-66
2023/08/21 07:07:48;;;;;;;7.05;5.90;;;40.80;90.00;;;;;;5050314;28;20208;-67
2023/08/21 07:10:15;;;;;;;6.18;5.40;;;40.30;90.40;;;;;;5050629;28;20205;-67
2023/08/21 07:12:41;;;;;;;8.45;5.45;;;39.80;91.00;;;;;;5050393;28;20212;-67
2023/08/21 07:15:09;;;;;;;8.93;5.88;;;39.60;91.00;;;;;;5050051;28;20232;-67
2023/08/21 07:17:36;;;;;;;9.13;5.82;;;40.00;90.80;;;;;;5049987;28;20584;-66
2023/08/21 07:20:03;;;;;;;5.75;5.13;;;40.60;88.50;;;;;;5050614;28;20213;-66
2023/08/21 07:22:30;;;;;;;6.95;5.18;;;40.60;89.10;;;;;;5050452;28;20240;-67
2023/08/21 07:25:00;;;;;;;7.50;5.20;;;41.00;86.30;;;;;;5049967;28;20228;-67
2023/08/21 07:27:27;;;;;;;6.30;4.68;;;41.70;84.20;;;;;;5050222;28;20712;-65
2023/08/21 07:29:53;;;;;;;7.38;5.13;;;42.40;81.30;;;;;;5050295;28;20208;-66
2023/08/21 07:32:20;;;;;;;6.28;4.13;;;41.70;82.30;;;;;;5050613;28;20202;-67
2023/08/21 07:34:47;;;;;;;6.75;4.93;;;41.00;80.70;;;;;;5050351;28;20692;-65
2023/08/21 07:37:13;;;;;;;7.32;5.10;;;40.10;83.30;;;;;;5049871;28;20358;-67
2023/08/21 07:39:40;;;;;;;6.72;5.50;;;39.20;86.70;;;;;;5053577;28;20204;-63
2023/08/21 07:42:08;;;;;;;8.18;5.18;;;37.90;89.50;;;;;;5053618;28;20645;-66
2023/08/21 07:44:35;;;;;;;6.57;4.85;;;37.20;91.40;;;;;;5075651;22;20237;-56
2023/08/21 07:47:02;;;;;;;10.05;5.18;;;37.00;91.90;;;;;;5045647;28;20642;-56
2023/08/21 07:49:29;;;;;;;5.32;4.82;;;37.70;90.90;;;;;;5053924;28;20208;-60
2023/08/21 07:51:56;;;;;;;7.40;5.50;;;39.00;90.30;;;;;;5054263;28;20779;-57
2023/08/21 07:54:23;;;;;;;5.53;4.70;;;39.90;87.30;;;;;;5053803;28;20225;-56
2023/08/21 07:56:50;;;;;;;10.00;5.22;;;40.30;85.50;;;;;;5053831;28;20209;-56
2023/08/21 07:59:19;;;;;;;6.30;5.03;;;39.80;86.40;;;;;;5054000;28;20299;-57
2023/08/21 08:01:46;;;;;;;7.80;5.32;;;39.20;88.40;;;;;;5053714;28;20633;-56
2023/08/21 08:04:13;;;;;;;6.95;4.90;;;39.00;89.60;;;;;;5053792;28;20225;-56
2023/08/21 08:06:39;;;;;;;5.97;5.38;;;39.00;90.20;;;;;;5053471;28;20211;-55
2023/08/21 08:09:06;;;;;;;10.00;5.40;;;39.20;88.30;;;;;;5053802;28;20213;-56
2023/08/21 08:11:33;;;;;;;10.85;5.18;;;39.20;88.00;;;;;;5054110;28;20212;-55
2023/08/21 08:13:59;;;;;;;7.93;5.28;;;39.40;88.30;;;;;;5053669;28;20628;-56
2023/08/21 08:16:27;;;;;;;8.15;4.88;;;40.10;84.70;;;;;;5053403;28;20212;-56
2023/08/21 08:18:54;;;;;;;5.15;4.65;;;40.60;83.30;;;;;;5053522;28;20208;-57
2023/08/21 08:21:21;;;;;;;7.70;4.93;;;40.90;82.30;;;;;;5053432;28;20571;-56
2023/08/21 08:23:48;;;;;;;6.05;5.25;;;41.20;82.20;;;;;;5053524;28;20318;-57
2023/08/21 08:26:14;;;;;;;4.90;4.15;;;41.20;80.80;;;;;;5053005;28;20213;-57
2023/08/21 08:28:41;;;;;;;7.78;4.68;;;40.00;81.60;;;;;;5053369;28;20205;-56
2023/08/21 08:31:14;;;;;;;8.35;4.75;;;37.70;86.80;;;;;;5053358;28;20267;-53
2023/08/21 08:33:42;;;;;;;9.10;5.40;;;36.40;90.70;;;;;;5053747;28;20201;-59
2023/08/21 08:36:09;;;;;;;7.15;5.20;;;34.80;93.30;;;;;;5035515;28;20237;-54
2023/08/21 08:38:37;;;;;;;6.75;4.88;;;33.90;95.00;;;;;;5032246;28;20216;-53
2023/08/21 08:41:11;;;;;;;6.53;5.57;;;33.60;95.80;;;;;;5032155;28;20212;-54
2023/08/21 08:43:41;;;;;;;8.60;5.45;;;33.40;97.20;;;;;;5031899;28;20209;-58
2023/08/21 08:46:08;;;;;;;6.00;5.40;;;33.30;97.80;;;;;;5031828;28;20464;-57
2023/08/21 08:48:36;;;;;;;6.60;4.78;;;33.20;98.50;;;;;;5031707;28;20579;-57
2023/08/21 08:51:04;;;;;;;10.32;5.10;;;32.90;98.50;;;;;;5031976;28;20210;-55
2023/08/21 08:53:32;;;;;;;8.88;5.15;;;32.40;99.90;;;;;;5032153;28;20199;-57
2023/08/21 08:55:59;;;;;;;6.95;5.80;;;31.90;99.90;;;;;;5031654;28;20226;-55
2023/08/21 08:58:26;;;;;;;10.55;6.00;;;31.60;99.90;;;;;;5031530;28;20705;-54
2023/08/21 09:00:52;;;;;;;7.13;5.47;;;31.40;99.90;;;;;;5031852;28;20221;-55
2023/08/21 09:03:19;;;;;;;6.80;5.32;;;31.20;99.90;;;;;;5031868;28;20230;-55
2023/08/21 09:05:47;;;;;;;7.95;5.18;;;31.30;99.90;;;;;;5031323;28;20225;-55
2023/08/21 09:08:16;;;;;;;7.00;5.50;;;31.40;99.90;;;;;;5031562;28;20207;-58
2023/08/21 09:10:45;;;;;;;9.15;5.90;;;31.50;99.90;;;;;;5031828;28;20538;-56
2023/08/21 09:13:16;;;;;;;7.38;5.82;;;31.20;99.90;;;;;;5031923;28;20209;-58
2023/08/21 09:15:44;;;;;;;10.40;5.88;;;30.90;99.90;;;;;;5031378;28;20226;-58
2023/08/21 09:18:11;;;;;;;10.13;5.80;;;30.70;99.90;;;;;;5031538;28;20217;-56
2023/08/21 09:20:39;;;;;;;8.48;5.68;;;30.70;99.90;;;;;;5031753;28;20301;-57
2023/08/21 09:23:06;;;;;;;6.93;5.50;;;30.60;99.90;;;;;;5031853;28;20233;-56
2023/08/21 09:25:40;;;;;;;11.80;5.60;;;30.50;99.90;;;;;;5031394;28;20226;-57
2023/08/21 09:28:07;;;;;;;8.05;6.00;;;30.50;99.90;;;;;;5031289;28;20243;-58
2023/08/21 09:30:48;;;;;;;8.48;5.65;;;30.70;99.90;;;;;;5031166;28;20202;-56
2023/08/21 09:33:18;;;;;;;9.18;5.60;;;31.00;99.90;;;;;;5031317;28;20252;-57
2023/08/21 09:35:44;;;;;;;6.38;5.07;;;31.40;99.90;;;;;;5031369;28;20230;-56
2023/08/21 09:38:11;;;;;;;5.35;4.82;;;31.90;99.90;;;;;;5031240;28;20219;-58
2023/08/21 09:40:42;;;;;;;10.05;5.65;;;32.20;99.90;;;;;;5031430;28;20580;-57
2023/08/21 09:43:10;;;;;;;5.95;5.13;;;32.40;99.90;;;;;;5031219;28;20705;-54
2023/08/21 09:45:38;;;;;;;5.38;4.88;;;32.40;99.90;;;;;;5030728;28;20329;-54
2023/08/21 09:48:05;;;;;;;6.65;4.97;;;32.50;99.90;;;;;;5031440;28;20214;-55
2023/08/21 09:50:32;;;;;;;9.77;5.00;;;32.40;99.90;;;;;;5031043;28;20332;-54
2023/08/21 09:52:59;;;;;;;7.97;4.75;;;32.30;99.90;;;;;;5030823;28;20202;-55
2023/08/21 09:55:29;;;;;;;5.47;4.32;;;32.10;99.90;;;;;;5031018;28;20311;-55
2023/08/21 09:58:00;;;;;;;7.53;4.47;;;31.80;99.90;;;;;;5030436;28;20220;-57
2023/08/21 10:00:31;;;;;;;5.80;4.65;;;31.80;99.90;;;;;;5030743;28;20206;-58
2023/08/21 10:03:02;;;;;;;5.95;4.53;;;31.80;99.90;;;;;;5031153;28;20329;-61
2023/08/21 10:05:29;;;;;;;6.50;4.65;;;32.00;99.90;;;;;;5030825;28;20317;-58
2023/08/21 10:07:57;;;;;;;10.38;4.95;;;32.10;99.90;;;;;;5030135;28;20206;-55
2023/08/21 10:10:24;;;;;;;8.13;4.88;;;32.10;99.90;;;;;;5030559;28;20242;-55
2023/08/21 10:12:51;;;;;;;6.25;5.00;;;32.20;99.90;;;;;;5031161;28;20318;-57
2023/08/21 10:15:19;;;;;;;7.80;4.60;;;32.30;99.90;;;;;;5030704;28;20584;-55
2023/08/21 10:17:46;;;;;;;7.13;4.43;;;32.20;99.90;;;;;;5030466;28;20206;-56
2023/08/21 10:20:12;;;;;;;8.13;4.95;;;32.10;99.90;;;;;;5030674;28;20254;-55
2023/08/21 10:22:46;;;;;;;7.50;5.10;;;32.10;99.90;;;;;;5030164;28;20229;-56
2023/08/21 10:25:17;;;;;;;7.25;4.38;;;32.20;99.90;;;;;;5030943;28;20340;-55
2023/08/21 10:27:44;;;;;;;6.43;5.00;;;32.30;99.90;;;;;;5030326;28;20250;-55
2023/08/21 10:30:28;;;;;;;8.57;5.43;;;32.40;99.90;;;;;;5029921;28;20210;-56
2023/08/21 10:32:55;;;;;;;8.27;4.68;;;32.50;99.90;;;;;;5023882;28;20206;-57
2023/08/21 10:35:24;;;;;;;6.47;4.70;;;32.60;99.90;;;;;;5028008;28;20233;-55
2023/08/21 10:38:07;;;;;;;6.78;4.55;;;32.70;99.90;;;;;;5029687;28;20264;-56
2023/08/21 10:40:34;;;;;;;8.60;4.57;;;32.80;99.90;;;;;;5029122;28;20281;-56
2023/08/21 10:43:02;;;;;;;6.72;4.13;;;32.80;99.90;;;;;;5028602;28;20254;-59
2023/08/21 10:45:31;;;;;;;5.28;4.10;;;32.90;99.90;;;;;;5029489;28;20572;-57
2023/08/21 10:47:58;;;;;;;7.18;4.68;;;33.20;99.90;;;;;;5029950;28;20214;-56
2023/08/21 10:50:26;;;;;;;6.10;4.55;;;33.30;99.90;;;;;;5028350;28;20206;-59
2023/08/21 10:52:54;;;;;;;7.68;4.95;;;33.30;99.90;;;;;;5030136;28;20248;-57
2023/08/21 10:55:21;;;;;;;7.63;4.57;;;33.40;99.90;;;;;;5030048;28;20769;-56
2023/08/21 10:57:49;;;;;;;7.55;4.40;;;33.50;99.90;;;;;;5029591;28;20206;-57
2023/08/21 11:00:17;;;;;;;4.90;4.35;;;33.50;99.90;;;;;;5029097;28;20220;-62
2023/08/21 11:02:46;;;;;;;7.18;4.10;;;33.50;99.90;;;;;;5009949;28;20314;-65
2023/08/21 11:05:14;;;;;;;7.65;4.22;;;33.50;99.90;;;;;;5010789;28;20227;-63
2023/08/21 11:07:44;;;;;;;5.18;4.50;;;33.50;99.90;;;;;;5010074;28;20211;-64
2023/08/21 11:10:13;;;;;;;7.80;4.10;;;33.60;99.90;;;;;;5010071;28;20246;-65
2023/08/21 11:12:49;;;;;;;7.82;4.35;;;33.60;99.90;;;;;;5013310;28;20279;-63
2023/08/21 11:15:16;;;;;;;6.82;4.25;;;33.70;99.90;;;;;;5033624;28;20258;-63
2023/08/21 11:17:51;;;;;;;6.18;3.88;;;33.70;99.90;;;;;;5033878;28;20206;-63
2023/08/21 11:20:17;;;;;;;7.43;4.13;;;33.70;98.80;;;;;;5034276;28;20395;-63
2023/08/21 11:22:44;;;;;;;10.00;4.03;;;33.60;99.10;;;;;;5033463;28;20317;-63
2023/08/21 11:25:11;;;;;;;6.95;4.15;;;33.70;98.50;;;;;;5033432;28;20742;-62
2023/08/21 11:27:39;;;;;;;8.32;3.88;;;33.70;98.30;;;;;;5033760;28;20268;-59
2023/08/21 11:30:07;;;;;;;7.50;4.07;;;33.70;97.70;;;;;;5032346;28;20260;-65
2023/08/21 11:32:33;;;;;;;8.32;4.55;;;33.70;98.50;;;;;;5033802;28;20580;-62
2023/08/21 11:35:03;;;;;;;6.32;3.85;;;33.90;98.80;;;;;;5033397;28;20575;-62
2023/08/21 11:37:29;;;;;;;10.40;4.13;;;34.00;98.20;;;;;;5033461;28;20229;-61
2023/08/21 11:39:57;;;;;;;8.43;3.97;;;34.10;97.80;;;;;;5033162;28;20203;-62
2023/08/21 11:42:31;;;;;;;7.80;3.95;;;34.40;96.80;;;;;;5033582;28;20221;-61
2023/08/21 11:45:00;;;;;;;7.38;3.95;;;34.40;96.50;;;;;;5031709;28;20248;-61
2023/08/21 11:47:33;;;;;;;6.70;4.20;;;34.60;96.50;;;;;;5032606;28;20203;-60
2023/08/21 11:50:05;;;;;;;6.28;4.18;;;34.60;96.50;;;;;;5033492;28;20210;-62
2023/08/21 11:52:32;;;;;;;7.68;3.80;;;34.60;96.30;;;;;;5033331;28;20693;-61
2023/08/21 11:54:59;;;;;;;7.38;4.10;;;34.50;96.50;;;;;;5033295;28;20280;-61
2023/08/21 11:57:26;;;;;;;9.63;4.55;;;34.40;96.50;;;;;;5033390;28;20208;-62
2023/08/21 11:59:54;;;;;;;7.38;4.28;;;34.50;96.50;;;;;;5033030;28;20210;-62
2023/08/21 12:02:24;;;;;;;7.05;3.92;;;34.60;96.50;;;;;;5033449;28;20213;-67
2023/08/21 12:04:53;;;;;;;10.50;4.53;;;34.70;96.10;;;;;;5034136;28;20231;-62
2023/08/21 12:07:22;;;;;;;6.28;4.13;;;34.70;96.00;;;;;;5033962;28;20301;-62
2023/08/21 12:09:49;;;;;;;6.35;4.28;;;34.70;95.70;;;;;;5034015;28;20210;-61
2023/08/21 12:12:16;;;;;;;7.18;4.28;;;34.60;95.70;;;;;;5034241;28;20202;-61
2023/08/21 12:14:42;;;;;;;5.40;4.53;;;34.50;95.60;;;;;;5033707;28;20229;-62
2023/08/21 12:17:09;;;;;;;5.97;4.30;;;34.40;95.90;;;;;;5033755;28;20207;-62
2023/08/21 12:19:36;;;;;;;9.25;4.82;;;34.40;96.20;;;;;;5033776;28;20231;-60
2023/08/21 12:22:03;;;;;;;9.88;4.60;;;34.50;96.20;;;;;;5034144;28;20214;-61
2023/08/21 12:24:32;;;;;;;6.75;4.75;;;34.50;96.30;;;;;;5032866;28;20226;-60
2023/08/21 12:26:58;;;;;;;8.18;4.03;;;34.60;96.30;;;;;;5033794;28;20219;-61
2023/08/21 12:29:25;;;;;;;7.32;4.40;;;34.80;95.80;;;;;;5033718;28;20206;-61
2023/08/21 12:31:52;;;;;;;9.18;4.55;;;35.00;95.30;;;;;;5033777;28;20257;-62
2023/08/21 12:34:19;;;;;;;4.90;4.05;;;34.90;95.10;;;;;;5033909;28;20222;-62
2023/08/21 12:36:46;;;;;;;7.03;4.03;;;34.70;95.20;;;;;;5033158;28;20662;-62
2023/08/21 12:39:13;;;;;;;8.57;4.50;;;34.70;95.40;;;;;;5033569;28;20252;-62
2023/08/21 12:41:41;;;;;;;5.13;4.10;;;34.70;95.20;;;;;;5033506;28;20217;-61
2023/08/21 12:44:09;;;;;;;7.53;4.38;;;34.90;95.10;;;;;;5033363;28;20335;-61
2023/08/21 12:46:35;;;;;;;7.15;4.03;;;35.00;94.70;;;;;;5033996;28;20241;-62